createdAt,value
2018-03-21T00:00:04.681Z,99.99
2018-03-21T00:01:04.705Z,99.99
2018-03-21T00:02:04.733Z,99.99
2018-03-21T00:03:04.755Z,99.99
2018-03-21T00:04:04.780Z,99.99
2018-03-21T00:05:04.804Z,99.99
2018-03-21T00:06:04.830Z,99.99
2018-03-21T00:07:04.883Z,99.99
2018-03-21T00:08:04.889Z,99.99
2018-03-21T00:09:04.911Z,99.99
2018-03-21T00:10:04.932Z,99.99
2018-03-21T00:11:04.956Z,99.99
2018-03-21T00:12:04.983Z,99.99
2018-03-21T00:13:05.008Z,99.99
2018-03-21T00:14:05.033Z,99.99
2018-03-21T00:15:05.057Z,99.99
2018-03-21T00:16:05.084Z,99.99
2018-03-21T00:17:05.110Z,99.99
2018-03-21T00:18:05.135Z,99.99
2018-03-21T00:19:05.183Z,99.99
2018-03-21T00:20:05.187Z,99.99
2018-03-21T00:21:05.220Z,99.99
2018-03-21T00:22:05.235Z,99.99
2018-03-21T00:23:05.261Z,99.99
2018-03-21T00:24:05.291Z,99.99
2018-03-21T00:25:05.311Z,99.99
2018-03-21T00:26:05.336Z,99.99
2018-03-21T00:27:05.361Z,99.99
2018-03-21T00:28:05.388Z,99.99
2018-03-21T00:29:05.413Z,99.99
2018-03-21T00:30:05.436Z,99.99
2018-03-21T00:31:05.461Z,99.99
2018-03-21T00:32:05.488Z,99.99
2018-03-21T00:33:05.512Z,99.99
2018-03-21T00:34:05.540Z,99.99
2018-03-21T00:35:05.571Z,99.99
2018-03-21T00:36:05.589Z,99.99
2018-03-21T00:37:05.614Z,99.99
2018-03-21T00:38:05.639Z,99.99
2018-03-21T00:39:05.664Z,99.99
2018-03-21T00:40:05.688Z,99.99
2018-03-21T00:41:05.714Z,99.99
2018-03-21T00:42:05.736Z,99.99
2018-03-21T00:43:05.768Z,99.99
2018-03-21T00:44:05.791Z,99.99
2018-03-21T00:45:05.814Z,99.99
2018-03-21T00:46:05.839Z,99.99
2018-03-21T00:47:05.872Z,99.99
2018-03-21T00:48:05.889Z,99.99
2018-03-21T00:49:05.912Z,99.99
2018-03-21T00:50:05.937Z,99.99
2018-03-21T00:51:05.967Z,99.99
2018-03-21T00:52:05.987Z,99.99
2018-03-21T00:53:06.013Z,99.99
2018-03-21T00:54:06.044Z,99.99
2018-03-21T00:55:06.062Z,99.99
2018-03-21T00:56:06.085Z,99.99
2018-03-21T00:57:06.111Z,99.99
2018-03-21T00:58:06.136Z,99.99
2018-03-21T00:59:06.162Z,99.99
2018-03-21T01:00:06.188Z,99.99
2018-03-21T01:01:06.210Z,99.99
2018-03-21T01:02:06.235Z,99.99
2018-03-21T01:03:06.261Z,99.99
2018-03-21T01:04:06.285Z,99.99
2018-03-21T01:05:06.310Z,99.99
2018-03-21T01:06:06.335Z,99.99
2018-03-21T01:07:06.359Z,99.99
2018-03-21T01:08:06.384Z,99.99
2018-03-21T01:09:06.410Z,99.99
2018-03-21T01:10:06.433Z,99.99
2018-03-21T01:11:06.459Z,99.99
2018-03-21T01:12:06.484Z,99.99
2018-03-21T01:13:06.507Z,99.99
2018-03-21T01:14:06.533Z,99.99
2018-03-21T01:15:06.560Z,99.99
2018-03-21T01:16:06.583Z,99.99
2018-03-21T01:17:06.609Z,99.99
2018-03-21T01:18:06.633Z,99.99
2018-03-21T01:19:06.656Z,99.99
2018-03-21T01:20:06.681Z,99.99
2018-03-21T01:21:06.706Z,99.99
2018-03-21T01:22:06.732Z,99.99
2018-03-21T01:23:06.756Z,99.99
2018-03-21T01:24:06.781Z,99.99
2018-03-21T01:25:06.807Z,99.99
2018-03-21T01:26:06.831Z,99.99
2018-03-21T01:27:06.859Z,99.99
2018-03-21T01:28:06.881Z,99.99
2018-03-21T01:29:06.905Z,99.99
2018-03-21T01:30:06.929Z,99.99
2018-03-21T01:31:06.955Z,99.99
2018-03-21T01:32:06.980Z,99.99
2018-03-21T01:33:07.005Z,99.99
2018-03-21T01:34:07.029Z,99.99
2018-03-21T01:35:07.053Z,99.99
2018-03-21T01:36:07.079Z,99.99
2018-03-21T01:37:07.106Z,99.99
2018-03-21T01:38:07.127Z,99.99
2018-03-21T01:39:07.155Z,99.99
2018-03-21T01:40:07.178Z,99.99
2018-03-21T01:41:07.202Z,99.99
2018-03-21T01:42:07.225Z,99.99
2018-03-21T01:43:07.251Z,99.99
2018-03-21T01:44:07.276Z,99.99
2018-03-21T01:45:07.300Z,99.99
2018-03-21T01:46:07.326Z,99.99
2018-03-21T01:47:07.393Z,99.99
2018-03-21T01:48:07.376Z,99.99
2018-03-21T01:49:07.400Z,99.99
2018-03-21T01:50:07.422Z,99.99
2018-03-21T01:51:07.447Z,99.99
2018-03-21T01:52:07.472Z,99.99
2018-03-21T01:53:07.498Z,99.99
2018-03-21T01:54:07.521Z,99.99
2018-03-21T01:55:07.544Z,99.99
2018-03-21T01:56:07.570Z,99.99
2018-03-21T01:57:07.594Z,99.99
2018-03-21T01:58:07.620Z,99.99
2018-03-21T01:59:07.644Z,99.99
2018-03-21T02:00:07.668Z,99.99
2018-03-21T02:01:07.693Z,99.99
2018-03-21T02:02:07.716Z,99.99
2018-03-21T02:03:07.743Z,99.99
2018-03-21T02:04:07.767Z,99.99
2018-03-21T02:05:07.790Z,99.99
2018-03-21T02:06:07.813Z,99.99
2018-03-21T02:07:07.838Z,99.99
2018-03-21T02:08:07.863Z,99.99
2018-03-21T02:09:07.887Z,99.99
2018-03-21T02:10:07.911Z,99.99
2018-03-21T02:11:07.941Z,99.99
2018-03-21T02:12:07.964Z,99.99
2018-03-21T02:13:07.986Z,99.99
2018-03-21T02:14:08.009Z,99.99
2018-03-21T02:15:08.036Z,99.99
2018-03-21T02:16:08.058Z,99.99
2018-03-21T02:17:08.083Z,99.99
2018-03-21T02:18:08.106Z,99.99
2018-03-21T02:19:08.131Z,99.99
2018-03-21T02:20:08.157Z,99.99
2018-03-21T02:21:08.180Z,99.99
2018-03-21T02:22:08.203Z,99.99
2018-03-21T02:23:08.227Z,99.99
2018-03-21T02:24:08.252Z,99.99
2018-03-21T02:25:08.277Z,99.99
2018-03-21T02:26:08.300Z,99.99
2018-03-21T02:27:08.329Z,99.99
2018-03-21T02:28:08.348Z,99.99
2018-03-21T02:29:08.375Z,99.99
2018-03-21T02:30:08.398Z,99.99
2018-03-21T02:31:08.423Z,99.99
2018-03-21T02:32:08.447Z,99.99
2018-03-21T02:33:08.473Z,99.99
2018-03-21T02:34:08.494Z,99.99
2018-03-21T02:35:08.519Z,99.99
2018-03-21T02:36:08.545Z,99.99
2018-03-21T02:37:08.568Z,99.99
2018-03-21T02:38:08.593Z,99.99
2018-03-21T02:39:08.618Z,99.99
2018-03-21T02:40:08.640Z,99.99
2018-03-21T02:41:08.664Z,99.99
2018-03-21T02:42:08.687Z,99.99
2018-03-21T02:43:08.712Z,99.99
2018-03-21T02:44:08.736Z,99.99
2018-03-21T02:45:08.760Z,99.99
2018-03-21T02:46:08.784Z,99.99
2018-03-21T02:47:08.807Z,99.99
2018-03-21T02:48:08.837Z,99.99
2018-03-21T02:49:08.856Z,99.99
2018-03-21T02:50:08.878Z,99.99
2018-03-21T02:51:08.903Z,99.99
2018-03-21T02:52:08.930Z,99.99
2018-03-21T02:53:08.952Z,99.99
2018-03-21T02:54:08.979Z,99.99
2018-03-21T02:55:09.000Z,99.99
2018-03-21T02:56:09.025Z,99.99
2018-03-21T02:57:09.048Z,99.99
2018-03-21T02:58:09.072Z,99.99
2018-03-21T02:59:09.094Z,99.99
2018-03-21T03:00:09.124Z,99.99
2018-03-21T03:01:09.143Z,99.99
2018-03-21T03:02:09.176Z,99.99
2018-03-21T03:03:09.190Z,99.99
2018-03-21T03:04:09.214Z,99.99
2018-03-21T03:05:09.239Z,99.99
2018-03-21T03:06:09.263Z,99.99
2018-03-21T03:07:09.285Z,99.99
2018-03-21T03:08:09.310Z,99.99
2018-03-21T03:09:09.333Z,99.99
2018-03-21T03:10:09.356Z,99.99
2018-03-21T03:11:09.380Z,99.99
2018-03-21T03:12:09.404Z,99.99
2018-03-21T03:13:09.427Z,99.99
2018-03-21T03:14:09.457Z,99.99
2018-03-21T03:15:09.475Z,99.99
2018-03-21T03:16:09.500Z,99.99
2018-03-21T03:17:09.524Z,99.99
2018-03-21T03:18:09.546Z,99.99
2018-03-21T03:19:09.570Z,99.99
2018-03-21T03:20:09.595Z,99.99
2018-03-21T03:21:09.619Z,99.99
2018-03-21T03:22:09.640Z,99.99
2018-03-21T03:23:09.664Z,99.99
2018-03-21T03:24:09.692Z,99.99
2018-03-21T03:25:09.713Z,99.99
2018-03-21T03:26:09.736Z,99.99
2018-03-21T03:27:09.760Z,99.99
2018-03-21T03:28:09.783Z,99.99
2018-03-21T03:29:09.807Z,99.99
2018-03-21T03:30:09.834Z,99.99
2018-03-21T03:31:09.856Z,99.99
2018-03-21T03:32:09.878Z,99.99
2018-03-21T03:33:09.903Z,99.99
2018-03-21T03:34:09.925Z,99.99
2018-03-21T03:35:09.948Z,99.99
2018-03-21T03:36:09.971Z,99.99
2018-03-21T03:37:09.994Z,99.99
2018-03-21T03:38:10.019Z,99.99
2018-03-21T03:39:10.042Z,99.99
2018-03-21T03:40:10.066Z,99.99
2018-03-21T03:41:10.090Z,99.99
2018-03-21T03:42:10.113Z,99.99
2018-03-21T03:43:10.137Z,99.99
2018-03-21T03:44:10.160Z,99.99
2018-03-21T03:45:10.184Z,99.99
2018-03-21T03:46:10.207Z,99.99
2018-03-21T03:47:10.230Z,99.99
2018-03-21T03:48:10.254Z,99.99
2018-03-21T03:49:10.277Z,99.99
2018-03-21T03:50:10.300Z,99.99
2018-03-21T03:51:10.324Z,99.99
2018-03-21T03:52:10.348Z,99.99
2018-03-21T03:53:10.373Z,99.99
2018-03-21T03:54:10.401Z,99.99
2018-03-21T03:55:10.418Z,99.99
2018-03-21T03:56:10.440Z,99.99
2018-03-21T03:57:10.464Z,99.99
2018-03-21T03:58:10.487Z,99.99
2018-03-21T03:59:10.511Z,99.99
2018-03-21T04:00:10.535Z,99.99
2018-03-21T04:01:10.556Z,99.99
2018-03-21T04:02:10.581Z,99.99
2018-03-21T04:03:10.604Z,99.99
2018-03-21T04:04:10.628Z,99.99
2018-03-21T04:05:10.651Z,99.99
2018-03-21T04:06:10.674Z,99.99
2018-03-21T04:07:10.755Z,99.99
2018-03-21T04:08:10.725Z,99.99
2018-03-21T04:09:10.745Z,99.99
2018-03-21T04:10:10.767Z,99.99
2018-03-21T04:11:10.790Z,99.99
2018-03-21T04:12:10.814Z,99.99
2018-03-21T04:13:10.839Z,99.99
2018-03-21T04:14:10.859Z,99.99
2018-03-21T04:15:10.882Z,99.99
2018-03-21T04:16:10.907Z,99.99
2018-03-21T04:17:10.931Z,99.99
2018-03-21T04:18:10.952Z,99.99
2018-03-21T04:19:10.975Z,99.99
2018-03-21T04:20:10.999Z,99.99
2018-03-21T04:21:11.023Z,99.99
2018-03-21T04:22:11.046Z,99.99
2018-03-21T04:23:11.073Z,99.99
2018-03-21T04:24:11.092Z,99.99
2018-03-21T04:25:11.115Z,99.99
2018-03-21T04:26:11.139Z,99.99
2018-03-21T04:27:11.161Z,99.99
2018-03-21T04:28:11.184Z,99.99
2018-03-21T04:29:11.208Z,99.99
2018-03-21T04:30:11.230Z,99.99
2018-03-21T04:31:11.254Z,99.99
2018-03-21T04:32:11.276Z,99.99
2018-03-21T04:33:11.300Z,99.99
2018-03-21T04:34:11.323Z,99.99
2018-03-21T04:35:11.346Z,99.99
2018-03-21T04:36:11.369Z,99.99
2018-03-21T04:37:11.392Z,99.99
2018-03-21T04:38:11.414Z,99.99
2018-03-21T04:39:11.438Z,99.99
2018-03-21T04:40:11.460Z,99.99
2018-03-21T04:41:11.485Z,99.99
2018-03-21T04:42:11.506Z,99.99
2018-03-21T04:43:11.530Z,99.99
2018-03-21T04:44:11.553Z,99.99
2018-03-21T04:45:11.577Z,99.99
2018-03-21T04:46:11.599Z,99.99
2018-03-21T04:47:11.623Z,99.99
2018-03-21T04:48:11.646Z,99.99
2018-03-21T04:49:11.668Z,99.99
2018-03-21T04:50:11.690Z,99.99
2018-03-21T04:51:11.714Z,99.99
2018-03-21T04:52:11.737Z,99.99
2018-03-21T04:53:11.759Z,99.99
2018-03-21T04:54:11.781Z,99.99
2018-03-21T04:55:11.806Z,99.99
2018-03-21T04:56:11.828Z,99.99
2018-03-21T04:57:11.851Z,99.99
2018-03-21T04:58:11.875Z,99.99
2018-03-21T04:59:11.897Z,99.99
2018-03-21T05:00:11.923Z,99.99
2018-03-21T05:01:11.943Z,99.99
2018-03-21T05:02:11.964Z,99.99
2018-03-21T05:03:11.988Z,99.99
2018-03-21T05:04:12.011Z,99.99
2018-03-21T05:05:12.034Z,99.99
2018-03-21T05:06:12.056Z,99.99
2018-03-21T05:07:12.079Z,99.99
2018-03-21T05:08:12.101Z,99.99
2018-03-21T05:09:12.125Z,99.99
2018-03-21T05:10:12.147Z,99.99
2018-03-21T05:11:12.172Z,99.99
2018-03-21T05:12:12.193Z,99.99
2018-03-21T05:13:12.216Z,99.99
2018-03-21T05:14:12.241Z,99.99
2018-03-21T05:15:12.261Z,99.99
2018-03-21T05:16:12.284Z,99.99
2018-03-21T05:17:12.307Z,99.99
2018-03-21T05:18:12.329Z,99.99
2018-03-21T05:19:12.352Z,99.99
2018-03-21T05:20:12.375Z,99.99
2018-03-21T05:21:12.398Z,99.99
2018-03-21T05:22:12.420Z,99.99
2018-03-21T05:23:12.443Z,99.99
2018-03-21T05:24:12.466Z,99.99
2018-03-21T05:25:12.489Z,99.99
2018-03-21T05:26:12.510Z,99.99
2018-03-21T05:27:12.537Z,99.99
2018-03-21T05:28:12.557Z,99.99
2018-03-21T05:29:12.580Z,99.99
2018-03-21T05:30:12.602Z,99.99
2018-03-21T05:31:12.625Z,99.99
2018-03-21T05:32:12.648Z,99.99
2018-03-21T05:33:12.696Z,99.99
2018-03-21T05:34:12.691Z,99.99
2018-03-21T05:35:12.716Z,99.99
2018-03-21T05:36:12.739Z,99.99
2018-03-21T05:37:12.760Z,99.99
2018-03-21T05:38:12.783Z,99.99
2018-03-21T05:39:12.806Z,99.99
2018-03-21T05:40:12.829Z,99.99
2018-03-21T05:41:12.851Z,99.99
2018-03-21T05:42:12.874Z,99.99
2018-03-21T05:43:12.900Z,99.99
2018-03-21T05:44:12.921Z,99.99
2018-03-21T05:45:12.944Z,99.99
2018-03-21T05:46:12.964Z,99.99
2018-03-21T05:47:12.988Z,99.99
2018-03-21T05:48:13.010Z,99.99
2018-03-21T05:49:13.032Z,99.99
2018-03-21T05:50:13.055Z,99.99
2018-03-21T05:51:13.078Z,99.99
2018-03-21T05:52:13.100Z,99.99
2018-03-21T05:53:13.124Z,99.99
2018-03-21T05:54:13.146Z,99.99
2018-03-21T05:55:13.168Z,99.99
2018-03-21T05:56:13.191Z,99.99
2018-03-21T05:57:13.223Z,99.99
2018-03-21T05:58:13.239Z,99.99
2018-03-21T05:59:13.269Z,99.99
2018-03-21T06:00:13.281Z,99.99
2018-03-21T06:01:13.313Z,99.99
2018-03-21T06:02:13.328Z,99.99
2018-03-21T06:03:13.351Z,99.99
2018-03-21T06:04:13.386Z,99.99
2018-03-21T06:05:13.396Z,99.99
2018-03-21T06:06:13.418Z,99.99
2018-03-21T06:07:13.441Z,99.99
2018-03-21T06:08:13.464Z,99.99
2018-03-21T06:09:13.486Z,99.99
2018-03-21T06:10:13.511Z,99.99
2018-03-21T06:11:13.533Z,99.99
2018-03-21T06:12:13.554Z,99.99
2018-03-21T06:13:13.579Z,99.99
2018-03-21T06:14:13.599Z,99.99
2018-03-21T06:15:13.624Z,99.99
2018-03-21T06:16:13.647Z,99.99
2018-03-21T06:17:13.671Z,99.99
2018-03-21T06:18:13.699Z,99.99
2018-03-21T06:19:13.723Z,99.99
2018-03-21T06:20:13.752Z,99.99
2018-03-21T06:21:13.761Z,99.99
2018-03-21T06:22:13.784Z,99.99
2018-03-21T06:23:13.820Z,99.99
2018-03-21T06:24:13.831Z,99.99
2018-03-21T06:25:13.855Z,99.99
2018-03-21T06:26:13.876Z,99.99
2018-03-21T06:27:13.900Z,99.99
2018-03-21T06:28:13.923Z,99.99
2018-03-21T06:29:13.946Z,99.99
2018-03-21T06:30:13.968Z,99.99
2018-03-21T06:31:13.994Z,99.99
2018-03-21T06:32:14.016Z,99.99
2018-03-21T06:33:14.039Z,99.99
2018-03-21T06:34:14.061Z,99.99
2018-03-21T06:35:14.085Z,99.99
2018-03-21T06:36:14.109Z,99.99
2018-03-21T06:37:14.132Z,99.99
2018-03-21T06:38:14.154Z,99.99
2018-03-21T06:39:14.178Z,99.99
2018-03-21T06:40:14.202Z,99.99
2018-03-21T06:41:14.225Z,99.99
2018-03-21T06:42:14.248Z,99.99
2018-03-21T06:43:14.272Z,99.99
2018-03-21T06:44:14.296Z,99.99
2018-03-21T06:45:14.319Z,99.99
2018-03-21T06:46:14.342Z,99.99
2018-03-21T06:47:14.365Z,99.99
2018-03-21T06:48:14.389Z,99.99
2018-03-21T06:49:14.413Z,99.99
2018-03-21T06:50:14.436Z,99.99
2018-03-21T06:51:14.460Z,99.99
2018-03-21T06:52:14.484Z,99.99
2018-03-21T06:53:14.508Z,99.99
2018-03-21T06:54:14.530Z,99.99
2018-03-21T06:55:14.555Z,99.99
2018-03-21T06:56:14.584Z,99.99
2018-03-21T06:57:14.602Z,99.99
2018-03-21T06:58:14.626Z,99.99
2018-03-21T06:59:14.650Z,99.99
2018-03-21T07:00:14.675Z,99.99
2018-03-21T07:01:14.700Z,99.99
2018-03-21T07:02:14.744Z,99.99
2018-03-21T07:03:14.746Z,99.19
2018-03-21T07:04:14.769Z,99.47
2018-03-21T07:05:14.795Z,99.00
2018-03-21T07:06:14.818Z,99.38
2018-03-21T07:07:14.843Z,98.24
2018-03-21T07:08:14.868Z,98.24
2018-03-21T07:09:14.890Z,97.96
2018-03-21T07:10:14.919Z,98.24
2018-03-21T07:11:14.939Z,97.30
2018-03-21T07:12:14.964Z,96.26
2018-03-21T07:13:14.989Z,96.54
2018-03-21T07:14:15.016Z,96.35
2018-03-21T07:15:15.036Z,97.01
2018-03-21T07:16:15.060Z,96.07
2018-03-21T07:17:15.085Z,95.17
2018-03-21T07:18:15.109Z,95.26
2018-03-21T07:19:15.135Z,94.60
2018-03-21T07:20:15.159Z,94.51
2018-03-21T07:21:15.184Z,93.09
2018-03-21T07:22:15.205Z,92.61
2018-03-21T07:23:15.231Z,92.80
2018-03-21T07:24:15.257Z,93.47
2018-03-21T07:25:15.289Z,92.80
2018-03-21T07:26:15.306Z,92.90
2018-03-21T07:27:15.331Z,92.80
2018-03-21T07:28:15.356Z,92.99
2018-03-21T07:29:15.381Z,91.86
2018-03-21T07:30:15.405Z,89.97
2018-03-21T07:31:15.430Z,89.69
2018-03-21T07:32:15.467Z,88.83
2018-03-21T07:33:15.493Z,88.55
2018-03-21T07:34:15.507Z,89.31
2018-03-21T07:35:15.533Z,90.16
2018-03-21T07:36:15.557Z,90.34
2018-03-21T07:37:15.586Z,90.63
2018-03-21T07:38:15.606Z,90.39
2018-03-21T07:39:15.631Z,90.86
2018-03-21T07:40:15.658Z,90.01
2018-03-21T07:41:15.683Z,90.01
2018-03-21T07:42:15.708Z,89.06
2018-03-21T07:43:15.735Z,87.27
2018-03-21T07:44:15.761Z,86.70
2018-03-21T07:45:15.786Z,85.94
2018-03-21T07:46:15.812Z,86.22
2018-03-21T07:47:15.838Z,87.65
2018-03-21T07:48:15.864Z,88.21
2018-03-21T07:49:15.890Z,87.74
2018-03-21T07:50:15.915Z,87.27
2018-03-21T07:51:15.941Z,86.79
2018-03-21T07:52:15.971Z,86.22
2018-03-21T07:53:15.994Z,85.04
2018-03-21T07:54:16.022Z,85.04
2018-03-21T07:55:16.046Z,84.56
2018-03-21T07:56:16.073Z,83.33
2018-03-21T07:57:16.100Z,82.86
2018-03-21T07:58:16.126Z,82.71
2018-03-21T07:59:16.152Z,81.76
2018-03-21T08:00:16.179Z,80.15
2018-03-21T08:01:16.206Z,78.92
2018-03-21T08:02:16.305Z,79.26
2018-03-21T08:03:16.261Z,80.06
2018-03-21T08:04:16.287Z,79.77
2018-03-21T08:05:16.315Z,79.58
2018-03-21T08:06:16.343Z,79.21
2018-03-21T08:07:16.368Z,79.30
2018-03-21T08:08:16.405Z,77.88
2018-03-21T08:09:16.425Z,77.22
2018-03-21T08:10:16.451Z,77.40
2018-03-21T08:11:16.480Z,76.68
2018-03-21T08:12:16.507Z,76.87
2018-03-21T08:13:16.535Z,76.68
2018-03-21T08:14:16.567Z,77.16
2018-03-21T08:15:16.594Z,74.98
2018-03-21T08:16:16.627Z,74.45
2018-03-21T08:17:16.648Z,73.69
2018-03-21T08:18:16.678Z,73.22
2018-03-21T08:19:16.705Z,71.80
2018-03-21T08:20:16.733Z,70.84
2018-03-21T08:21:16.761Z,69.71
2018-03-21T08:22:16.790Z,69.90
2018-03-21T08:23:16.818Z,70.84
2018-03-21T08:24:16.847Z,71.70
2018-03-21T08:25:16.877Z,71.60
2018-03-21T08:26:16.904Z,71.83
2018-03-21T08:27:16.934Z,72.64
2018-03-21T08:28:16.962Z,72.40
2018-03-21T08:29:16.998Z,71.17
2018-03-21T08:30:17.021Z,70.78
2018-03-21T08:31:17.050Z,70.12
2018-03-21T08:32:17.080Z,69.93
2018-03-21T08:33:17.110Z,70.88
2018-03-21T08:34:17.137Z,70.59
2018-03-21T08:35:17.169Z,70.40
2018-03-21T08:36:17.201Z,69.49
2018-03-21T08:37:17.228Z,70.15
2018-03-21T08:38:17.257Z,71.83
2018-03-21T08:39:17.289Z,72.02
2018-03-21T08:40:17.319Z,72.44
2018-03-21T08:41:17.349Z,72.28
2018-03-21T08:42:17.384Z,70.82
2018-03-21T08:43:17.409Z,71.86
2018-03-21T08:44:17.440Z,72.78
2018-03-21T08:45:17.469Z,71.77
2018-03-21T08:46:17.500Z,70.57
2018-03-21T08:47:17.533Z,69.81
2018-03-21T08:48:17.563Z,68.77
2018-03-21T08:49:17.592Z,68.52
2018-03-21T08:50:17.623Z,66.80
2018-03-21T08:51:17.654Z,65.41
2018-03-21T08:52:17.685Z,62.59
2018-03-21T08:53:17.717Z,60.05
2018-03-21T08:54:17.747Z,58.40
2018-03-21T08:55:17.780Z,57.04
2018-03-21T08:56:17.811Z,57.71
2018-03-21T08:57:17.843Z,60.91
2018-03-21T08:58:17.875Z,63.45
2018-03-21T08:59:17.910Z,65.41
2018-03-21T09:00:17.939Z,60.08
2018-03-21T09:01:17.971Z,52.05
2018-03-21T09:02:18.002Z,48.25
2018-03-21T09:03:18.036Z,45.06
2018-03-21T09:04:18.068Z,46.39
2018-03-21T09:05:18.102Z,51.14
2018-03-21T09:06:18.134Z,52.18
2018-03-21T09:07:18.172Z,54.47
2018-03-21T09:08:18.202Z,54.39
2018-03-21T09:09:18.235Z,52.83
2018-03-21T09:10:18.267Z,50.99
2018-03-21T09:11:18.300Z,51.45
2018-03-21T09:12:18.333Z,50.85
2018-03-21T09:13:18.370Z,50.09
2018-03-21T09:14:18.405Z,46.56
2018-03-21T09:15:18.435Z,44.15
2018-03-21T09:16:18.469Z,44.38
2018-03-21T09:17:18.504Z,47.58
2018-03-21T09:18:18.585Z,48.44
2018-03-21T09:19:18.585Z,49.35
2018-03-21T09:20:18.608Z,52.06
2018-03-21T09:21:18.641Z,56.41
2018-03-21T09:22:18.678Z,58.57
2018-03-21T09:23:18.708Z,59.90
2018-03-21T09:24:18.744Z,59.96
2018-03-21T09:25:18.777Z,61.39
2018-03-21T09:26:18.810Z,62.12
2018-03-21T09:27:18.844Z,63.45
2018-03-21T09:28:18.878Z,63.95
2018-03-21T09:29:18.916Z,63.64
2018-03-21T09:30:18.942Z,64.02
2018-03-21T09:31:19.027Z,64.49
2018-03-21T09:32:19.009Z,65.22
2018-03-21T09:33:19.039Z,65.79
2018-03-21T09:34:19.070Z,66.27
2018-03-21T09:35:19.103Z,66.74
2018-03-21T09:36:19.134Z,66.08
2018-03-21T09:37:19.165Z,65.60
2018-03-21T09:38:19.197Z,66.61
2018-03-21T09:39:19.231Z,66.71
2018-03-21T09:40:19.259Z,65.28
2018-03-21T09:41:19.289Z,65.37
2018-03-21T09:42:19.321Z,65.75
2018-03-21T09:43:19.351Z,66.99
2018-03-21T09:44:19.381Z,68.41
2018-03-21T09:45:19.411Z,68.13
2018-03-21T09:46:19.443Z,68.70
2018-03-21T09:47:19.471Z,67.59
2018-03-21T09:48:19.503Z,65.06
2018-03-21T09:49:19.537Z,63.35
2018-03-21T09:50:19.560Z,63.04
2018-03-21T09:51:19.598Z,62.59
2018-03-21T09:52:19.620Z,56.33
2018-03-21T09:53:19.652Z,49.68
2018-03-21T09:54:19.681Z,49.44
2018-03-21T09:55:19.716Z,51.62
2018-03-21T09:56:19.745Z,54.61
2018-03-21T09:57:19.778Z,56.51
2018-03-21T09:58:19.808Z,59.36
2018-03-21T09:59:19.841Z,60.03
2018-03-21T10:00:19.877Z,58.63
2018-03-21T10:01:19.913Z,57.40
2018-03-21T10:02:19.937Z,58.22
2018-03-21T10:03:19.968Z,59.36
2018-03-21T10:04:20.003Z,60.03
2018-03-21T10:05:20.031Z,59.62
2018-03-21T10:06:20.096Z,60.76
2018-03-21T10:07:20.095Z,61.33
2018-03-21T10:08:20.127Z,61.93
2018-03-21T10:09:20.156Z,61.71
2018-03-21T10:10:20.187Z,61.83
2018-03-21T10:11:20.221Z,61.45
2018-03-21T10:12:20.255Z,60.88
2018-03-21T10:13:20.282Z,53.52
2018-03-21T10:14:20.324Z,51.20
2018-03-21T10:15:20.343Z,54.36
2018-03-21T10:16:20.376Z,56.26
2018-03-21T10:17:20.406Z,56.99
2018-03-21T10:18:20.448Z,57.59
2018-03-21T10:19:20.470Z,57.68
2018-03-21T10:20:20.510Z,57.68
2018-03-21T10:21:20.534Z,57.94
2018-03-21T10:22:20.566Z,59.27
2018-03-21T10:23:20.645Z,59.65
2018-03-21T10:24:20.630Z,59.65
2018-03-21T10:25:20.666Z,58.13
2018-03-21T10:26:20.693Z,56.89
2018-03-21T10:27:20.726Z,56.32
2018-03-21T10:28:20.757Z,56.89
2018-03-21T10:29:20.820Z,54.06
2018-03-21T10:30:20.819Z,51.46
2018-03-21T10:31:20.852Z,51.68
2018-03-21T10:32:20.884Z,49.68
2018-03-21T10:33:20.916Z,43.30
2018-03-21T10:34:20.948Z,40.55
2018-03-21T10:35:20.982Z,40.78
2018-03-21T10:36:21.022Z,39.15
2018-03-21T10:37:21.051Z,39.04
2018-03-21T10:38:21.084Z,39.47
2018-03-21T10:39:21.120Z,35.73
2018-03-21T10:40:21.157Z,32.14
2018-03-21T10:41:21.190Z,29.02
2018-03-21T10:42:21.230Z,27.39
2018-03-21T10:43:21.266Z,25.78
2018-03-21T10:44:21.302Z,25.35
2018-03-21T10:45:21.342Z,27.08
2018-03-21T10:46:21.380Z,27.84
2018-03-21T10:47:21.422Z,29.20
2018-03-21T10:48:21.460Z,31.29
2018-03-21T10:49:21.500Z,30.89
2018-03-21T10:50:21.540Z,28.31
2018-03-21T10:51:21.583Z,28.49
2018-03-21T10:52:21.621Z,29.42
2018-03-21T10:53:21.668Z,31.38
2018-03-21T10:54:21.709Z,31.23
2018-03-21T10:55:21.745Z,30.41
2018-03-21T10:56:21.787Z,31.79
2018-03-21T10:57:21.828Z,33.36
2018-03-21T10:58:21.879Z,36.00
2018-03-21T10:59:21.912Z,35.82
2018-03-21T11:00:22.004Z,34.91
2018-03-21T11:01:21.999Z,35.80
2018-03-21T11:02:22.057Z,38.62
2018-03-21T11:03:22.079Z,40.91
2018-03-21T11:04:22.121Z,40.88
2018-03-21T11:05:22.162Z,35.04
2018-03-21T11:06:22.203Z,32.23
2018-03-21T11:07:22.244Z,34.38
2018-03-21T11:08:22.289Z,35.83
2018-03-21T11:09:22.327Z,34.00
2018-03-21T11:10:22.367Z,32.09
2018-03-21T11:11:22.409Z,29.52
2018-03-21T11:12:22.450Z,29.88
2018-03-21T11:13:22.500Z,29.74
2018-03-21T11:14:22.530Z,28.99
2018-03-21T11:15:22.574Z,32.20
2018-03-21T11:16:22.617Z,34.20
2018-03-21T11:17:22.659Z,33.78
2018-03-21T11:18:22.700Z,31.85
2018-03-21T11:19:22.791Z,31.45
2018-03-21T11:20:22.784Z,28.11
2018-03-21T11:21:22.829Z,26.79
2018-03-21T11:22:22.870Z,27.83
2018-03-21T11:23:22.910Z,29.75
2018-03-21T11:24:22.954Z,28.14
2018-03-21T11:25:22.996Z,27.67
2018-03-21T11:26:23.039Z,25.81
2018-03-21T11:27:23.082Z,28.91
2018-03-21T11:28:23.128Z,32.20
2018-03-21T11:29:23.173Z,35.26
2018-03-21T11:30:23.217Z,34.10
2018-03-21T11:31:23.258Z,29.91
2018-03-21T11:32:23.314Z,30.43
2018-03-21T11:33:23.352Z,32.31
2018-03-21T11:34:23.389Z,34.51
2018-03-21T11:35:23.432Z,35.22
2018-03-21T11:36:23.477Z,36.33
2018-03-21T11:37:23.519Z,38.87
2018-03-21T11:38:23.563Z,39.14
2018-03-21T11:39:23.603Z,33.99
2018-03-21T11:40:23.645Z,30.14
2018-03-21T11:41:23.686Z,26.61
2018-03-21T11:42:23.728Z,25.16
2018-03-21T11:43:23.774Z,24.10
2018-03-21T11:44:23.814Z,23.24
2018-03-21T11:45:23.857Z,23.44
2018-03-21T11:46:23.899Z,23.42
2018-03-21T11:47:23.943Z,23.35
2018-03-21T11:48:23.987Z,22.52
2018-03-21T11:49:24.032Z,21.34
2018-03-21T11:50:24.075Z,23.13
2018-03-21T11:51:24.118Z,23.05
2018-03-21T11:52:24.162Z,22.76
2018-03-21T11:53:24.207Z,24.26
2018-03-21T11:54:24.250Z,25.19
2018-03-21T11:55:24.295Z,25.87
2018-03-21T11:56:24.380Z,25.54
2018-03-21T11:57:24.384Z,22.91
2018-03-21T11:58:24.429Z,21.01
2018-03-21T11:59:24.476Z,19.86
2018-03-21T12:00:24.521Z,18.90
2018-03-21T12:01:24.565Z,18.52
2018-03-21T12:02:24.611Z,17.76
2018-03-21T12:03:24.658Z,16.71
2018-03-21T12:04:24.705Z,16.99
2018-03-21T12:05:24.751Z,19.20
2018-03-21T12:06:24.797Z,21.72
2018-03-21T12:07:24.843Z,20.61
2018-03-21T12:08:24.890Z,20.54
2018-03-21T12:09:24.940Z,23.73
2018-03-21T12:10:24.991Z,27.47
2018-03-21T12:11:25.032Z,25.77
2018-03-21T12:12:25.074Z,25.96
2018-03-21T12:13:25.120Z,26.57
2018-03-21T12:14:25.164Z,28.28
2018-03-21T12:15:25.210Z,30.15
2018-03-21T12:16:25.254Z,32.98
2018-03-21T12:17:25.299Z,36.74
2018-03-21T12:18:25.341Z,38.24
2018-03-21T12:19:25.383Z,39.19
2018-03-21T12:20:25.426Z,40.23
2018-03-21T12:21:25.467Z,40.75
2018-03-21T12:22:25.510Z,37.93
2018-03-21T12:23:25.549Z,34.94
2018-03-21T12:24:25.591Z,32.10
2018-03-21T12:25:25.631Z,29.88
2018-03-21T12:26:25.672Z,26.92
2018-03-21T12:27:25.712Z,25.62
2018-03-21T12:28:25.754Z,27.66
2018-03-21T12:29:25.794Z,28.22
2018-03-21T12:30:25.837Z,26.87
2018-03-21T12:31:25.879Z,28.83
2018-03-21T12:32:25.922Z,30.61
2018-03-21T12:33:25.965Z,32.32
2018-03-21T12:34:26.004Z,33.28
2018-03-21T12:35:26.044Z,34.41
2018-03-21T12:36:26.085Z,35.63
2018-03-21T12:37:26.127Z,36.32
2018-03-21T12:38:26.168Z,35.42
2018-03-21T12:39:26.210Z,37.13
2018-03-21T12:40:26.247Z,37.06
2018-03-21T12:41:26.288Z,37.06
2018-03-21T12:42:26.324Z,37.15
2018-03-21T12:43:26.364Z,36.69
2018-03-21T12:44:26.430Z,35.76
2018-03-21T12:45:26.442Z,35.38
2018-03-21T12:46:26.479Z,35.66
2018-03-21T12:47:26.518Z,35.74
2018-03-21T12:48:26.555Z,36.62
2018-03-21T12:49:26.591Z,33.87
2018-03-21T12:50:26.629Z,34.20
2018-03-21T12:51:26.666Z,35.08
2018-03-21T12:52:26.704Z,35.39